createdAt,value
2018-07-08T05:05:09.952Z,8.40
2018-07-08T05:10:14.198Z,8.73
2018-07-08T05:15:17.535Z,7.70
2018-07-08T05:20:20.906Z,8.30
2018-07-08T05:25:24.223Z,8.00
2018-07-08T05:30:29.492Z,9.23
2018-07-08T05:35:32.855Z,7.63
2018-07-08T05:40:55.389Z,8.37
2018-07-08T05:45:58.723Z,9.33
2018-07-08T05:51:02.831Z,7.90
2018-07-08T05:56:06.159Z,7.30
2018-07-08T06:01:10.270Z,7.37
2018-07-08T06:06:13.611Z,7.53
2018-07-08T06:11:17.706Z,8.50
2018-07-08T06:16:21.054Z,8.97
2018-07-08T06:21:25.147Z,8.37
2018-07-08T06:26:28.482Z,8.03
2018-07-08T06:31:31.804Z,9.27
2018-07-08T06:36:35.926Z,7.97
2018-07-08T06:41:40.035Z,9.40
2018-07-08T06:46:43.375Z,8.63
2018-07-08T06:51:47.481Z,8.10
2018-07-08T06:56:50.809Z,7.90
2018-07-08T07:01:54.155Z,8.53
2018-07-08T07:06:57.490Z,7.50
2018-07-08T07:12:00.811Z,8.67
2018-07-08T07:17:04.139Z,8.20
2018-07-08T07:22:07.471Z,8.40
2018-07-08T07:27:10.830Z,10.37
2018-07-08T07:32:14.371Z,9.07
2018-07-08T07:37:17.758Z,9.73
2018-07-08T07:42:21.046Z,9.40
2018-07-08T07:47:25.139Z,9.93
2018-07-08T07:52:28.480Z,8.43
2018-07-08T07:57:31.810Z,9.00
2018-07-08T08:02:35.144Z,11.77
2018-07-08T08:07:38.470Z,7.47
2018-07-08T08:12:41.821Z,8.23
2018-07-08T08:17:45.208Z,8.17
2018-07-08T08:22:48.538Z,9.40
2018-07-08T08:27:51.875Z,8.90
2018-07-08T08:32:55.973Z,7.43
2018-07-08T08:37:59.305Z,7.07
2018-07-08T08:43:02.626Z,7.00
2018-07-08T08:48:06.727Z,6.97
2018-07-08T08:53:10.054Z,7.80
2018-07-08T08:58:13.827Z,5.93
2018-07-08T09:03:17.435Z,7.67
2018-07-08T09:08:21.542Z,7.83
2018-07-08T09:13:25.167Z,6.13
2018-07-08T09:18:28.877Z,4.17
2018-07-08T09:23:33.421Z,4.67
2018-07-08T09:28:37.133Z,5.73
2018-07-08T09:33:40.992Z,6.10
2018-07-08T09:38:44.747Z,5.00
2018-07-08T09:43:48.329Z,6.77
2018-07-08T09:48:52.217Z,5.60
2018-07-08T09:53:56.288Z,5.10
2018-07-08T09:58:59.799Z,5.37
2018-07-08T10:04:03.634Z,5.73
2018-07-08T10:09:07.590Z,4.43
2018-07-08T10:14:11.315Z,4.10
2018-07-08T10:19:15.415Z,4.13
2018-07-08T10:24:19.344Z,3.63
2018-07-08T10:29:26.584Z,2.60
2018-07-08T10:34:30.399Z,4.47
2018-07-08T10:39:33.734Z,3.67
2018-07-08T10:44:37.067Z,4.13
2018-07-08T10:49:41.170Z,5.13
2018-07-08T10:54:44.498Z,4.60
2018-07-08T10:59:47.857Z,4.73
2018-07-08T11:04:51.307Z,4.20
2018-07-08T11:09:55.186Z,4.73
2018-07-08T11:14:58.550Z,3.37
2018-07-08T11:20:03.827Z,4.23
2018-07-08T11:25:07.159Z,3.97
2018-07-08T11:30:31.153Z,3.93
2018-07-08T11:35:35.249Z,5.23
2018-07-08T11:40:38.582Z,5.53
2018-07-08T11:45:42.677Z,7.57
2018-07-08T11:51:01.985Z,7.53
2018-07-08T11:56:07.871Z,4.37
2018-07-08T12:01:11.198Z,4.80
2018-07-08T12:06:15.322Z,3.90
2018-07-08T12:11:19.418Z,3.67
2018-07-08T12:16:22.769Z,6.00
2018-07-08T12:21:26.863Z,2.20
2018-07-08T12:26:30.205Z,3.53
2018-07-08T12:31:34.304Z,5.03
2018-07-08T12:36:37.625Z,3.73
2018-07-08T12:41:40.981Z,4.73
2018-07-08T12:46:44.311Z,2.70
2018-07-08T12:51:47.634Z,3.67
2018-07-08T12:56:50.966Z,2.73
2018-07-08T13:01:54.934Z,3.93
2018-07-08T13:06:59.026Z,5.23
2018-07-08T13:12:03.381Z,3.90
2018-07-08T13:17:06.731Z,2.60
2018-07-08T13:22:10.378Z,4.43
2018-07-08T13:27:13.719Z,2.87
2018-07-08T13:32:17.147Z,3.47
2018-07-08T13:37:20.430Z,3.83
2018-07-08T13:42:23.762Z,3.30
2018-07-08T13:47:27.269Z,3.60
2018-07-08T13:52:30.586Z,3.87
2018-07-08T13:57:34.115Z,3.87
2018-07-08T14:02:37.475Z,2.90
2018-07-08T14:07:40.839Z,4.20
2018-07-08T14:12:44.195Z,3.93
2018-07-08T14:17:47.545Z,3.37
2018-07-08T14:22:50.882Z,2.73
2018-07-08T14:27:54.367Z,2.73
2018-07-08T14:32:57.978Z,2.10
2018-07-08T14:38:01.326Z,3.37
2018-07-08T14:43:04.803Z,3.40
2018-07-08T14:48:08.232Z,3.97
2018-07-08T14:53:11.584Z,3.90
2018-07-08T14:58:15.695Z,2.50
2018-07-08T15:03:19.041Z,3.33
2018-07-08T15:08:22.382Z,3.83
2018-07-08T15:13:25.715Z,3.57
2018-07-08T15:24:10.548Z,4.63
2018-07-08T15:29:13.874Z,2.50
2018-07-08T15:34:17.203Z,2.70
2018-07-08T15:39:21.302Z,3.47
2018-07-08T15:44:24.655Z,2.50
2018-07-08T15:49:28.016Z,2.50
2018-07-08T15:54:31.323Z,3.37
2018-07-08T15:59:34.708Z,2.40
2018-07-08T16:04:37.991Z,1.90
2018-07-08T16:09:42.083Z,2.23
2018-07-08T16:14:45.416Z,3.43
2018-07-08T16:19:48.748Z,2.97
2018-07-08T16:24:52.930Z,2.13
2018-07-08T16:30:23.698Z,3.37
2018-07-08T16:35:27.022Z,1.90
2018-07-08T16:40:38.998Z,1.77
2018-07-08T16:45:42.321Z,2.77
2018-07-08T16:51:15.273Z,2.40
2018-07-08T16:56:24.159Z,3.83
2018-07-08T17:01:27.606Z,2.17
2018-07-08T17:06:30.984Z,4.20
2018-07-08T17:11:35.630Z,2.70
2018-07-08T17:16:42.573Z,3.57
2018-07-08T17:21:45.925Z,5.10
2018-07-08T17:26:49.264Z,2.90
2018-07-08T17:31:53.354Z,2.63
2018-07-08T17:36:56.679Z,3.33
2018-07-08T17:42:00.774Z,1.97
2018-07-08T17:47:04.105Z,1.73
2018-07-08T17:52:07.444Z,1.83
2018-07-08T17:57:10.782Z,2.30
2018-07-08T18:02:14.886Z,1.30
2018-07-08T18:07:18.235Z,1.53
2018-07-08T18:12:21.714Z,1.80
2018-07-08T18:17:25.072Z,4.73
2018-07-08T18:22:28.411Z,1.87
2018-07-08T18:27:31.740Z,2.70
2018-07-08T18:32:35.071Z,9.13
2018-07-08T18:37:38.417Z,10.47
2018-07-08T18:42:41.744Z,5.57
2018-07-08T18:47:45.080Z,6.07
2018-07-08T18:52:48.410Z,4.00
2018-07-08T18:57:51.735Z,9.73
2018-07-08T19:02:55.062Z,5.07
2018-07-08T19:07:59.169Z,4.93
2018-07-08T19:13:02.530Z,2.80
2018-07-08T19:18:05.860Z,2.00
2018-07-08T19:23:09.191Z,2.23
2018-07-08T19:28:14.442Z,1.93
2018-07-08T19:33:17.815Z,2.20
2018-07-08T19:38:21.135Z,3.03
2018-07-08T19:43:24.462Z,1.83
2018-07-08T19:48:27.791Z,2.47
2018-07-08T19:53:31.120Z,1.63
2018-07-08T19:58:34.456Z,3.67
2018-07-08T20:03:38.107Z,2.93
2018-07-08T20:08:41.664Z,4.00
2018-07-08T20:13:45.171Z,3.97
2018-07-08T20:18:48.860Z,2.43
2018-07-08T20:23:52.505Z,2.83
2018-07-08T20:28:55.879Z,2.87
2018-07-08T20:33:59.979Z,1.30
2018-07-08T20:39:03.316Z,3.60
2018-07-08T20:44:07.408Z,2.60
2018-07-08T20:49:11.752Z,1.87
2018-07-08T20:54:15.084Z,1.50
2018-07-08T20:59:18.410Z,2.60
2018-07-08T21:04:22.515Z,1.57
2018-07-08T21:09:57.851Z,4.40
2018-07-08T21:15:01.184Z,2.93
2018-07-08T21:20:04.521Z,3.33
2018-07-08T21:25:08.612Z,2.33
2018-07-08T21:30:12.954Z,1.20
2018-07-08T21:35:16.283Z,2.03
2018-07-08T21:40:40.108Z,1.57
2018-07-08T21:45:44.215Z,3.63
2018-07-08T21:50:54.127Z,2.90
2018-07-08T21:55:57.451Z,2.75
2018-07-08T22:01:00.790Z,5.00
2018-07-08T22:06:04.114Z,4.27
2018-07-08T22:11:07.453Z,3.87
2018-07-08T22:16:11.601Z,2.47
2018-07-08T22:21:15.658Z,1.63
2018-07-08T22:26:18.987Z,2.50
